Flight Track Log - Related Links

Times and Time Zones

All times are in EDT time to prevent confusion due to time zone crossing. See the EJM826 flight status page for this flight to view local times or setup timezone preferences in your user account.

Time Position Orientation Groundspeed Altitude Reporting Facility
EDT Latitude Longitude Course Direction KTS MPH feet Rate Location/Type
Wed 11:05:00 AM 33.9159 -118.0917 142° Southeast  Level Estimated
Wed 11:06:00 AM 33.8684 -118.0474 142° Southeast  Level Estimated
Wed 11:07:00 AM 33.8209 -118.0031 142° Southeast  Level Estimated
Wed 11:08:00 AM 33.7733 -117.9588 142° Southeast  Level Estimated
Wed 11:09:00 AM 33.7257 -117.9147 142° Southeast  Level Estimated
Wed 11:10:00 AM 33.6782 -117.8705 142° Southeast  Level Estimated
Wed 11:10:44 AM 33.8061 -118.2083 209° Southwest 254 292 4,900  Level Los Angeles Center
Wed 11:11:00 AM 33.6757 -117.8682 142° Southeast  Level Estimated
Wed 11:11:45 AM 33.7717 -118.1542 127° Southeast 253 291 4,000  Level Los Angeles Center
Wed 11:12:00 AM 33.6757 -117.8682 209° Southwest  Level Estimated
Wed 11:12:17 AM 33.7667 -118.0833 95° East 264 304 4,000  Level Southern California TRACON
Wed 11:13:00 AM 33.6757 -117.8682 209° Southwest  Level Estimated
Wed 11:13:17 AM 33.8000 -118.0167 59° Northeast 246 283 4,000  Level Southern California TRACON
Wed 11:14:00 AM 33.6757 -117.8682 209° Southwest  Level Estimated
Wed 11:14:17 AM 33.8000 -117.9333 90° East 235 270 4,100  Level Southern California TRACON
Wed 11:15:00 AM 33.6757 -117.8682 209° Southwest  Level Estimated
Wed 11:15:17 AM 33.8333 -117.8667 59° Northeast 243 280 4,100  Level Southern California TRACON
Wed 11:16:00 AM 33.6757 -117.8682 209° Southwest  Level Estimated
Wed 11:16:17 AM 33.8667 -117.8000 59° Northeast 238 274 3,600  Level Southern California TRACON
Wed 11:17:17 AM 33.8333 -117.7667 140° Southeast 224 258 3,000 -545 Descending Southern California TRACON
Wed 11:18:18 AM 33.7833 -117.8000 209° Southwest 171 197 2,500 -645 Descending Southern California TRACON
Wed 11:19:18 AM 33.7500 -117.8167 203° Southwest 154 177 1,700 -800 Descending Southern California TRACON
Wed 11:20:18 AM 33.7167 -117.8500 220° Southwest 151 174 900 -571 Descending Southern California TRACON
Wed 11:22:06 AM 33.6536 -117.8806 202° Southwest 151 174 100 -444 Descending Los Angeles Center

Login

Don't have an account? Register now (free) for customized features, flight alerts, and more!